Detall de PIREP

Printer-friendly versionPDF version

[2008/08/10 21:32:00]
Flight IATA:CT1005
Pilot Number:026
Company ICAO:CAT
Aircraft Type:B75F/E
PAX:0
Departing Airport: LBSF
Destination Airport: LIEA
Alternate Airport:LIEO
Online: VATSIM
Route:GODEK N188 OBLAK UL615 VEBAR UL5 MINKA
Flight Level:FL320
No Slew and time accel
No pause
Crash detect
Detect pilot in Cockpit between each 30 and 45 minutes
21:32 Zero fuel Weight: 231581 Lbs, Fuel Weight: 24398 Lbs
21:32 VATSIM:LBSF 102100Z 27004MPS CAVOK 17/10 Q1013 NOSIG
21:32 VATSIM:LIEA 102050Z 01003KT CAVOK 22/19 Q1013
21:33 VOICE CATALONIAN / EU TOUR
21:39 Parking Brakes off
21:46 Take-off
21:46 Take off Weight: 254692 Lbs
21:46 Wind: 277º @ 010 Knots Heading: 093º
21:46 POS N42º 41´ 47´´ E023º 25´ 34´´
21:46 Flaps:3 at 179 Knots
21:46 Gear Up: 179 Knots
21:46 Flaps:2 at 166 Knots
21:47 Flaps:1 at 214 Knots
21:48 Flaps:0 at 220 Knots
22:01 Wind:322º@012 Knots
Heading: 291º Ground Speed: 446 Knots Altitude 28543 ft
22:09 TOC
22:09 Fuel Weight: 16785 Lb
22:16 Wind:294º@006 Knots Heading: 283º Ground Speed: 463 Knots Altitude 32001 ft
22:31 Wind:304º@025 Knots Heading: 256º Ground Speed: 458 Knots Altitude 31916 ft
22:46 Wind:315º@006 Knots Heading: 236º Ground Speed: 472 Knots Altitude 31955 ft
23:01 Wind:278º@011 Knots Heading: 250º Ground Speed: 466 Knots Altitude 31932 ft
23:09 TOD
23:09 Fuel Weight: 7607 Lb
23:16 Wind:193º@013 Knots Heading: 246º Ground Speed: 401 Knots Altitude 22306 ft
23:31 Wind:275º@006 Knots Heading: 265º Ground Speed: 262 Knots Altitude 7801 ft
23:36 Flaps:1 at 227 Knots
23:36 Flaps:2 at 227 Knots
23:36 Flaps:3 at 219 Knots
23:36 Gear Down: 217 Knots
23:36 Flaps:4 at 166 Knots
23:38 Flaps:5 at 166 Knots
23:38 Flaps:6 at 156 Knots
23:39 TouchDown:Rate -671 ft/min Speed: 142 Knots
23:39 VAT
SIM:LIEA 102320Z 31004KT CAVOK 21/19 Q1012
23:39 Land
23:39 Wind:310º@004 Knots
23:39 Heading: 205º
23:39 Flight Duration: 01:53
23:39 Landing Weight: 236481 Lbs
23:39 POS N40º 37´ 59´´ E008º 17´ 28´´
23:45 Parking brakes on
23:45 Block to Block Duration: 02:06
23:45 Final Fuel: 4215 Lbls
23:45 Spent Fuel: 20183 Lbls
23:45 Flight Length: 772 NM
23:45 TOD Land Length: 154 NM

Exportar CSV

Powered by Drupal - Modified by Danger4k